sensor_id;sensor_type;location;lat;lon;timestamp;P1;durP1;ratioP1;P2;durP2;ratioP2
64791;SDS011;51226;47.504;19.074;2023-12-20T00:00:00;43.08;;;23.77;;
64791;SDS011;51226;47.504;19.074;2023-12-20T00:03:05;36.53;;;21.98;;
64791;SDS011;51226;47.504;19.074;2023-12-20T00:06:09;40.67;;;23.35;;
64791;SDS011;51226;47.504;19.074;2023-12-20T00:09:12;42.67;;;23.77;;
64791;SDS011;51226;47.504;19.074;2023-12-20T00:12:16;42.85;;;22.02;;
64791;SDS011;51226;47.504;19.074;2023-12-20T00:15:18;43.57;;;23.73;;
64791;SDS011;51226;47.504;19.074;2023-12-20T00:21:25;41.08;;;21.37;;
64791;SDS011;51226;47.504;19.074;2023-12-20T00:24:29;42.70;;;22.40;;
64791;SDS011;51226;47.504;19.074;2023-12-20T00:27:32;43.47;;;22.10;;
64791;SDS011;51226;47.504;19.074;2023-12-20T00:30:35;41.92;;;22.67;;
64791;SDS011;51226;47.504;19.074;2023-12-20T00:33:38;37.03;;;22.90;;
64791;SDS011;51226;47.504;19.074;2023-12-20T00:36:43;36.67;;;21.12;;
64791;SDS011;51226;47.504;19.074;2023-12-20T00:39:46;39.83;;;21.40;;
64791;SDS011;51226;47.504;19.074;2023-12-20T00:42:49;40.55;;;22.98;;
64791;SDS011;51226;47.504;19.074;2023-12-20T00:45:51;39.80;;;22.77;;
64791;SDS011;51226;47.504;19.074;2023-12-20T00:51:57;38.70;;;21.00;;
64791;SDS011;51226;47.504;19.074;2023-12-20T00:55:01;44.63;;;22.87;;
64791;SDS011;51226;47.504;19.074;2023-12-20T00:58:03;45.25;;;22.35;;
64791;SDS011;51226;47.504;19.074;2023-12-20T01:01:07;40.47;;;21.77;;
64791;SDS011;51226;47.504;19.074;2023-12-20T01:04:10;36.17;;;20.75;;
64791;SDS011;51226;47.504;19.074;2023-12-20T01:07:13;37.80;;;21.95;;
64791;SDS011;51226;47.504;19.074;2023-12-20T01:10:16;37.55;;;20.75;;
64791;SDS011;51226;47.504;19.074;2023-12-20T01:13:20;39.10;;;22.40;;
64791;SDS011;51226;47.504;19.074;2023-12-20T01:16:25;45.12;;;23.42;;
64791;SDS011;51226;47.504;19.074;2023-12-20T01:19:28;40.33;;;22.45;;
64791;SDS011;51226;47.504;19.074;2023-12-20T01:22:32;44.55;;;21.30;;
64791;SDS011;51226;47.504;19.074;2023-12-20T01:25:35;39.70;;;22.27;;
64791;SDS011;51226;47.504;19.074;2023-12-20T01:28:39;39.47;;;21.75;;
64791;SDS011;51226;47.504;19.074;2023-12-20T01:34:45;40.60;;;21.05;;
64791;SDS011;51226;47.504;19.074;2023-12-20T01:40:51;35.63;;;19.37;;
64791;SDS011;51226;47.504;19.074;2023-12-20T01:43:54;40.53;;;21.30;;
64791;SDS011;51226;47.504;19.074;2023-12-20T01:46:57;47.97;;;21.95;;
64791;SDS011;51226;47.504;19.074;2023-12-20T01:50:00;41.05;;;21.83;;
64791;SDS011;51226;47.504;19.074;2023-12-20T01:53:07;40.42;;;22.10;;
64791;SDS011;51226;47.504;19.074;2023-12-20T01:56:12;40.08;;;21.87;;
64791;SDS011;51226;47.504;19.074;2023-12-20T02:02:19;36.83;;;22.35;;
64791;SDS011;51226;47.504;19.074;2023-12-20T02:05:22;38.88;;;20.62;;
64791;SDS011;51226;47.504;19.074;2023-12-20T02:08:27;41.28;;;22.83;;
64791;SDS011;51226;47.504;19.074;2023-12-20T02:11:30;42.90;;;21.00;;
64791;SDS011;51226;47.504;19.074;2023-12-20T02:14:33;42.72;;;21.70;;
64791;SDS011;51226;47.504;19.074;2023-12-20T02:17:36;47.08;;;22.62;;
64791;SDS011;51226;47.504;19.074;2023-12-20T02:20:41;44.30;;;22.30;;
64791;SDS011;51226;47.504;19.074;2023-12-20T02:23:44;44.65;;;22.48;;
64791;SDS011;51226;47.504;19.074;2023-12-20T02:26:47;42.15;;;21.45;;
64791;SDS011;51226;47.504;19.074;2023-12-20T02:29:50;48.67;;;24.12;;
64791;SDS011;51226;47.504;19.074;2023-12-20T02:32:53;45.08;;;21.70;;
64791;SDS011;51226;47.504;19.074;2023-12-20T02:35:57;49.65;;;23.85;;
64791;SDS011;51226;47.504;19.074;2023-12-20T02:39:00;46.17;;;23.55;;
64791;SDS011;51226;47.504;19.074;2023-12-20T02:42:02;48.03;;;23.73;;
64791;SDS011;51226;47.504;19.074;2023-12-20T02:45:06;40.63;;;22.55;;
64791;SDS011;51226;47.504;19.074;2023-12-20T02:48:09;50.60;;;25.08;;
64791;SDS011;51226;47.504;19.074;2023-12-20T02:51:12;46.80;;;24.37;;
64791;SDS011;51226;47.504;19.074;2023-12-20T02:54:15;44.20;;;24.40;;
64791;SDS011;51226;47.504;19.074;2023-12-20T03:00:21;49.47;;;23.33;;
64791;SDS011;51226;47.504;19.074;2023-12-20T03:03:25;49.30;;;23.65;;
64791;SDS011;51226;47.504;19.074;2023-12-20T03:06:27;46.47;;;23.13;;
64791;SDS011;51226;47.504;19.074;2023-12-20T03:09:30;45.40;;;24.37;;
64791;SDS011;51226;47.504;19.074;2023-12-20T03:12:53;52.30;;;24.50;;
64791;SDS011;51226;47.504;19.074;2023-12-20T03:15:56;47.53;;;24.25;;
64791;SDS011;51226;47.504;19.074;2023-12-20T03:18:59;50.10;;;24.23;;
64791;SDS011;51226;47.504;19.074;2023-12-20T03:22:02;50.38;;;24.10;;
64791;SDS011;51226;47.504;19.074;2023-12-20T03:25:05;56.97;;;25.60;;
64791;SDS011;51226;47.504;19.074;2023-12-20T03:28:08;52.90;;;26.12;;
64791;SDS011;51226;47.504;19.074;2023-12-20T03:31:11;50.30;;;25.33;;
64791;SDS011;51226;47.504;19.074;2023-12-20T03:34:14;53.38;;;25.58;;
64791;SDS011;51226;47.504;19.074;2023-12-20T03:37:18;47.95;;;24.83;;
64791;SDS011;51226;47.504;19.074;2023-12-20T03:40:21;48.00;;;25.98;;
64791;SDS011;51226;47.504;19.074;2023-12-20T03:43:24;50.00;;;25.65;;
64791;SDS011;51226;47.504;19.074;2023-12-20T03:46:28;49.85;;;26.20;;
64791;SDS011;51226;47.504;19.074;2023-12-20T03:49:30;52.47;;;26.50;;
64791;SDS011;51226;47.504;19.074;2023-12-20T03:52:33;48.92;;;27.05;;
64791;SDS011;51226;47.504;19.074;2023-12-20T03:55:36;54.00;;;27.77;;
64791;SDS011;51226;47.504;19.074;2023-12-20T03:58:39;51.20;;;26.30;;
64791;SDS011;51226;47.504;19.074;2023-12-20T04:01:44;49.58;;;25.48;;
64791;SDS011;51226;47.504;19.074;2023-12-20T04:04:48;49.33;;;25.37;;
64791;SDS011;51226;47.504;19.074;2023-12-20T04:07:50;41.55;;;23.95;;
64791;SDS011;51226;47.504;19.074;2023-12-20T04:10:54;48.33;;;24.55;;
64791;SDS011;51226;47.504;19.074;2023-12-20T04:13:56;52.43;;;26.03;;
64791;SDS011;51226;47.504;19.074;2023-12-20T04:16:59;50.67;;;23.95;;
64791;SDS011;51226;47.504;19.074;2023-12-20T04:20:02;50.83;;;25.35;;
64791;SDS011;51226;47.504;19.074;2023-12-20T04:23:06;51.95;;;25.55;;
64791;SDS011;51226;47.504;19.074;2023-12-20T04:29:32;50.37;;;25.57;;
64791;SDS011;51226;47.504;19.074;2023-12-20T04:32:34;43.65;;;24.67;;
64791;SDS011;51226;47.504;19.074;2023-12-20T04:35:37;49.03;;;24.45;;
64791;SDS011;51226;47.504;19.074;2023-12-20T04:38:40;53.28;;;27.30;;
64791;SDS011;51226;47.504;19.074;2023-12-20T04:41:43;53.78;;;27.13;;
64791;SDS011;51226;47.504;19.074;2023-12-20T04:44:46;50.63;;;25.53;;
64791;SDS011;51226;47.504;19.074;2023-12-20T04:47:49;46.05;;;25.25;;
64791;SDS011;51226;47.504;19.074;2023-12-20T04:50:52;46.83;;;23.20;;
64791;SDS011;51226;47.504;19.074;2023-12-20T04:53:55;49.08;;;25.23;;
64791;SDS011;51226;47.504;19.074;2023-12-20T04:56:58;42.92;;;22.67;;
64791;SDS011;51226;47.504;19.074;2023-12-20T05:00:01;49.03;;;26.27;;
64791;SDS011;51226;47.504;19.074;2023-12-20T05:03:04;46.08;;;24.30;;
64791;SDS011;51226;47.504;19.074;2023-12-20T05:09:09;50.58;;;24.08;;
64791;SDS011;51226;47.504;19.074;2023-12-20T05:12:13;44.60;;;23.87;;
64791;SDS011;51226;47.504;19.074;2023-12-20T05:15:15;45.00;;;23.67;;
64791;SDS011;51226;47.504;19.074;2023-12-20T05:18:18;45.72;;;24.08;;
64791;SDS011;51226;47.504;19.074;2023-12-20T05:21:22;45.85;;;23.40;;
64791;SDS011;51226;47.504;19.074;2023-12-20T05:24:25;45.83;;;26.00;;
64791;SDS011;51226;47.504;19.074;2023-12-20T05:27:28;48.50;;;24.90;;
64791;SDS011;51226;47.504;19.074;2023-12-20T05:30:31;48.03;;;25.02;;
64791;SDS011;51226;47.504;19.074;2023-12-20T05:33:34;54.20;;;27.17;;
64791;SDS011;51226;47.504;19.074;2023-12-20T05:36:37;45.92;;;24.52;;
64791;SDS011;51226;47.504;19.074;2023-12-20T05:39:41;41.10;;;24.25;;
64791;SDS011;51226;47.504;19.074;2023-12-20T05:42:46;42.10;;;22.85;;
64791;SDS011;51226;47.504;19.074;2023-12-20T05:45:49;50.88;;;26.00;;
64791;SDS011;51226;47.504;19.074;2023-12-20T05:48:52;49.08;;;26.60;;
64791;SDS011;51226;47.504;19.074;2023-12-20T05:51:55;43.72;;;25.23;;
64791;SDS011;51226;47.504;19.074;2023-12-20T05:54:58;50.22;;;25.67;;
64791;SDS011;51226;47.504;19.074;2023-12-20T05:58:03;47.17;;;27.27;;
64791;SDS011;51226;47.504;19.074;2023-12-20T06:01:08;49.20;;;25.62;;
64791;SDS011;51226;47.504;19.074;2023-12-20T06:04:11;44.42;;;25.02;;
64791;SDS011;51226;47.504;19.074;2023-12-20T06:07:14;49.70;;;26.55;;
64791;SDS011;51226;47.504;19.074;2023-12-20T06:10:18;46.55;;;26.08;;
64791;SDS011;51226;47.504;19.074;2023-12-20T06:13:21;52.67;;;27.00;;
64791;SDS011;51226;47.504;19.074;2023-12-20T06:16:24;53.60;;;28.87;;
64791;SDS011;51226;47.504;19.074;2023-12-20T06:19:27;61.67;;;30.17;;
64791;SDS011;51226;47.504;19.074;2023-12-20T06:22:30;56.47;;;29.27;;
64791;SDS011;51226;47.504;19.074;2023-12-20T06:25:33;57.95;;;28.08;;
64791;SDS011;51226;47.504;19.074;2023-12-20T06:28:36;53.55;;;28.30;;
64791;SDS011;51226;47.504;19.074;2023-12-20T06:31:43;57.45;;;28.27;;
64791;SDS011;51226;47.504;19.074;2023-12-20T06:34:46;55.50;;;29.37;;
64791;SDS011;51226;47.504;19.074;2023-12-20T06:37:49;64.47;;;31.87;;
64791;SDS011;51226;47.504;19.074;2023-12-20T06:40:52;55.60;;;30.15;;
64791;SDS011;51226;47.504;19.074;2023-12-20T06:43:56;53.55;;;28.73;;
64791;SDS011;51226;47.504;19.074;2023-12-20T06:46:59;61.00;;;29.52;;
64791;SDS011;51226;47.504;19.074;2023-12-20T06:50:02;56.22;;;28.58;;
64791;SDS011;51226;47.504;19.074;2023-12-20T06:53:05;59.05;;;29.95;;
64791;SDS011;51226;47.504;19.074;2023-12-20T06:56:12;57.53;;;29.00;;
64791;SDS011;51226;47.504;19.074;2023-12-20T06:59:20;58.50;;;30.55;;
64791;SDS011;51226;47.504;19.074;2023-12-20T07:02:23;66.43;;;28.45;;
64791;SDS011;51226;47.504;19.074;2023-12-20T07:05:26;62.03;;;30.00;;
64791;SDS011;51226;47.504;19.074;2023-12-20T07:08:29;55.28;;;29.77;;
64791;SDS011;51226;47.504;19.074;2023-12-20T07:11:32;61.13;;;32.22;;
64791;SDS011;51226;47.504;19.074;2023-12-20T07:14:34;61.33;;;30.95;;
64791;SDS011;51226;47.504;19.074;2023-12-20T07:17:38;56.17;;;31.42;;
64791;SDS011;51226;47.504;19.074;2023-12-20T07:20:41;59.17;;;30.88;;
64791;SDS011;51226;47.504;19.074;2023-12-20T07:23:46;58.55;;;29.27;;
64791;SDS011;51226;47.504;19.074;2023-12-20T07:26:49;58.65;;;28.02;;
64791;SDS011;51226;47.504;19.074;2023-12-20T07:29:53;59.05;;;30.77;;
64791;SDS011;51226;47.504;19.074;2023-12-20T07:32:56;60.40;;;31.55;;
64791;SDS011;51226;47.504;19.074;2023-12-20T07:35:59;55.72;;;30.50;;
64791;SDS011;51226;47.504;19.074;2023-12-20T07:39:03;58.58;;;32.20;;
64791;SDS011;51226;47.504;19.074;2023-12-20T07:42:09;58.17;;;33.28;;
64791;SDS011;51226;47.504;19.074;2023-12-20T07:45:11;56.40;;;30.77;;
64791;SDS011;51226;47.504;19.074;2023-12-20T07:48:14;59.67;;;33.80;;
64791;SDS011;51226;47.504;19.074;2023-12-20T07:51:18;56.17;;;30.95;;
64791;SDS011;51226;47.504;19.074;2023-12-20T07:54:23;56.75;;;30.88;;
64791;SDS011;51226;47.504;19.074;2023-12-20T07:57:28;57.95;;;30.92;;
64791;SDS011;51226;47.504;19.074;2023-12-20T08:00:32;55.10;;;28.92;;
64791;SDS011;51226;47.504;19.074;2023-12-20T08:03:35;63.42;;;32.22;;
64791;SDS011;51226;47.504;19.074;2023-12-20T08:06:38;56.97;;;30.45;;
64791;SDS011;51226;47.504;19.074;2023-12-20T08:09:42;59.95;;;29.95;;
64791;SDS011;51226;47.504;19.074;2023-12-20T08:12:46;57.35;;;30.42;;
64791;SDS011;51226;47.504;19.074;2023-12-20T08:18:51;69.78;;;36.85;;
64791;SDS011;51226;47.504;19.074;2023-12-20T08:21:56;65.45;;;33.53;;
64791;SDS011;51226;47.504;19.074;2023-12-20T08:24:59;62.33;;;31.08;;
64791;SDS011;51226;47.504;19.074;2023-12-20T08:28:04;51.97;;;28.27;;
64791;SDS011;51226;47.504;19.074;2023-12-20T08:31:13;54.53;;;30.37;;
64791;SDS011;51226;47.504;19.074;2023-12-20T08:34:17;59.08;;;29.83;;
64791;SDS011;51226;47.504;19.074;2023-12-20T08:37:19;57.25;;;29.75;;
64791;SDS011;51226;47.504;19.074;2023-12-20T08:40:23;52.55;;;30.37;;
64791;SDS011;51226;47.504;19.074;2023-12-20T08:43:26;91.87;;;49.38;;
64791;SDS011;51226;47.504;19.074;2023-12-20T08:46:29;62.33;;;33.55;;
64791;SDS011;51226;47.504;19.074;2023-12-20T08:49:32;58.87;;;31.33;;
64791;SDS011;51226;47.504;19.074;2023-12-20T08:52:35;53.22;;;30.08;;
64791;SDS011;51226;47.504;19.074;2023-12-20T08:55:39;54.15;;;30.60;;
64791;SDS011;51226;47.504;19.074;2023-12-20T08:58:42;54.10;;;31.17;;
64791;SDS011;51226;47.504;19.074;2023-12-20T09:04:51;59.58;;;31.48;;
64791;SDS011;51226;47.504;19.074;2023-12-20T09:07:54;62.03;;;32.35;;
64791;SDS011;51226;47.504;19.074;2023-12-20T09:10:57;57.55;;;31.30;;
64791;SDS011;51226;47.504;19.074;2023-12-20T09:14:01;55.97;;;31.25;;
64791;SDS011;51226;47.504;19.074;2023-12-20T09:17:04;58.83;;;32.55;;
64791;SDS011;51226;47.504;19.074;2023-12-20T09:20:08;61.15;;;32.10;;
64791;SDS011;51226;47.504;19.074;2023-12-20T09:23:14;61.35;;;32.78;;
64791;SDS011;51226;47.504;19.074;2023-12-20T09:26:17;63.22;;;31.52;;
64791;SDS011;51226;47.504;19.074;2023-12-20T09:29:20;59.70;;;33.22;;
64791;SDS011;51226;47.504;19.074;2023-12-20T09:32:23;62.38;;;33.65;;
64791;SDS011;51226;47.504;19.074;2023-12-20T09:35:26;60.45;;;34.13;;
64791;SDS011;51226;47.504;19.074;2023-12-20T09:38:31;54.65;;;32.60;;
64791;SDS011;51226;47.504;19.074;2023-12-20T09:41:37;60.47;;;34.35;;
64791;SDS011;51226;47.504;19.074;2023-12-20T09:44:45;57.53;;;35.05;;
64791;SDS011;51226;47.504;19.074;2023-12-20T09:47:50;57.35;;;32.60;;
64791;SDS011;51226;47.504;19.074;2023-12-20T09:50:55;61.50;;;34.95;;
64791;SDS011;51226;47.504;19.074;2023-12-20T09:53:59;58.42;;;37.03;;
64791;SDS011;51226;47.504;19.074;2023-12-20T09:57:05;56.40;;;34.90;;
64791;SDS011;51226;47.504;19.074;2023-12-20T10:00:12;56.53;;;38.85;;
64791;SDS011;51226;47.504;19.074;2023-12-20T10:03:16;54.60;;;37.47;;
64791;SDS011;51226;47.504;19.074;2023-12-20T10:06:21;57.42;;;37.22;;
64791;SDS011;51226;47.504;19.074;2023-12-20T10:09:25;56.15;;;36.38;;
64791;SDS011;51226;47.504;19.074;2023-12-20T10:12:31;55.80;;;37.53;;
64791;SDS011;51226;47.504;19.074;2023-12-20T10:15:35;54.05;;;36.55;;
64791;SDS011;51226;47.504;19.074;2023-12-20T10:18:39;57.38;;;37.00;;
64791;SDS011;51226;47.504;19.074;2023-12-20T10:21:42;56.50;;;37.40;;
64791;SDS011;51226;47.504;19.074;2023-12-20T10:24:46;54.25;;;33.97;;
64791;SDS011;51226;47.504;19.074;2023-12-20T10:27:50;49.80;;;33.47;;
64791;SDS011;51226;47.504;19.074;2023-12-20T10:31:14;55.00;;;34.13;;
64791;SDS011;51226;47.504;19.074;2023-12-20T10:34:31;48.55;;;30.90;;
64791;SDS011;51226;47.504;19.074;2023-12-20T10:37:38;44.05;;;30.30;;
64791;SDS011;51226;47.504;19.074;2023-12-20T10:40:42;49.03;;;30.90;;
64791;SDS011;51226;47.504;19.074;2023-12-20T10:43:45;49.15;;;32.92;;
64791;SDS011;51226;47.504;19.074;2023-12-20T10:46:49;50.38;;;32.25;;
64791;SDS011;51226;47.504;19.074;2023-12-20T10:49:54;48.50;;;32.70;;
64791;SDS011;51226;47.504;19.074;2023-12-20T10:52:58;44.38;;;31.90;;
64791;SDS011;51226;47.504;19.074;2023-12-20T10:56:02;46.80;;;33.00;;
64791;SDS011;51226;47.504;19.074;2023-12-20T10:59:07;45.03;;;34.58;;
64791;SDS011;51226;47.504;19.074;2023-12-20T11:02:13;47.60;;;35.55;;
64791;SDS011;51226;47.504;19.074;2023-12-20T11:05:36;51.35;;;37.78;;
64791;SDS011;51226;47.504;19.074;2023-12-20T11:08:53;51.58;;;36.05;;
64791;SDS011;51226;47.504;19.074;2023-12-20T11:15:44;59.38;;;40.33;;
64791;SDS011;51226;47.504;19.074;2023-12-20T11:18:47;51.63;;;38.72;;
64791;SDS011;51226;47.504;19.074;2023-12-20T11:21:50;51.85;;;36.60;;
64791;SDS011;51226;47.504;19.074;2023-12-20T11:24:53;51.67;;;37.15;;
64791;SDS011;51226;47.504;19.074;2023-12-20T11:28:07;49.72;;;36.08;;
64791;SDS011;51226;47.504;19.074;2023-12-20T11:31:13;53.57;;;36.47;;
64791;SDS011;51226;47.504;19.074;2023-12-20T11:34:17;50.90;;;36.75;;
64791;SDS011;51226;47.504;19.074;2023-12-20T11:37:20;49.65;;;37.83;;
64791;SDS011;51226;47.504;19.074;2023-12-20T11:40:24;49.97;;;39.25;;
64791;SDS011;51226;47.504;19.074;2023-12-20T11:43:37;52.90;;;37.45;;
64791;SDS011;51226;47.504;19.074;2023-12-20T11:46:44;48.03;;;35.30;;
64791;SDS011;51226;47.504;19.074;2023-12-20T11:49:47;49.80;;;34.80;;
64791;SDS011;51226;47.504;19.074;2023-12-20T11:52:59;49.00;;;36.23;;
64791;SDS011;51226;47.504;19.074;2023-12-20T11:56:03;47.80;;;35.80;;
64791;SDS011;51226;47.504;19.074;2023-12-20T11:59:08;55.03;;;37.53;;
64791;SDS011;51226;47.504;19.074;2023-12-20T12:02:26;55.05;;;36.28;;
64791;SDS011;51226;47.504;19.074;2023-12-20T12:05:33;53.42;;;36.83;;
64791;SDS011;51226;47.504;19.074;2023-12-20T12:08:37;55.47;;;38.20;;
64791;SDS011;51226;47.504;19.074;2023-12-20T12:11:41;46.53;;;32.85;;
64791;SDS011;51226;47.504;19.074;2023-12-20T12:14:45;50.05;;;33.40;;
64791;SDS011;51226;47.504;19.074;2023-12-20T12:17:55;50.03;;;33.53;;
64791;SDS011;51226;47.504;19.074;2023-12-20T12:21:02;42.05;;;29.50;;
64791;SDS011;51226;47.504;19.074;2023-12-20T12:24:14;35.30;;;23.52;;
64791;SDS011;51226;47.504;19.074;2023-12-20T12:27:17;26.00;;;21.08;;
64791;SDS011;51226;47.504;19.074;2023-12-20T12:33:24;19.08;;;15.77;;
64791;SDS011;51226;47.504;19.074;2023-12-20T12:36:29;17.85;;;14.32;;
64791;SDS011;51226;47.504;19.074;2023-12-20T12:39:32;19.20;;;15.55;;
64791;SDS011;51226;47.504;19.074;2023-12-20T12:42:36;16.98;;;14.02;;
64791;SDS011;51226;47.504;19.074;2023-12-20T12:45:39;17.12;;;13.05;;
64791;SDS011;51226;47.504;19.074;2023-12-20T12:51:48;14.43;;;11.82;;
64791;SDS011;51226;47.504;19.074;2023-12-20T12:57:54;13.57;;;12.18;;
64791;SDS011;51226;47.504;19.074;2023-12-20T13:00:58;14.73;;;12.27;;
64791;SDS011;51226;47.504;19.074;2023-12-20T13:04:01;15.00;;;12.10;;
64791;SDS011;51226;47.504;19.074;2023-12-20T13:07:07;15.57;;;12.93;;
64791;SDS011;51226;47.504;19.074;2023-12-20T13:10:13;15.23;;;13.20;;
64791;SDS011;51226;47.504;19.074;2023-12-20T13:13:19;16.35;;;11.93;;
64791;SDS011;51226;47.504;19.074;2023-12-20T13:16:22;15.35;;;11.93;;
64791;SDS011;51226;47.504;19.074;2023-12-20T13:22:28;14.27;;;11.60;;
64791;SDS011;51226;47.504;19.074;2023-12-20T13:25:32;14.82;;;11.93;;
64791;SDS011;51226;47.504;19.074;2023-12-20T13:28:38;14.73;;;11.55;;
64791;SDS011;51226;47.504;19.074;2023-12-20T13:31:42;16.67;;;12.13;;
64791;SDS011;51226;47.504;19.074;2023-12-20T13:34:45;15.57;;;12.32;;
64791;SDS011;51226;47.504;19.074;2023-12-20T13:37:49;13.85;;;11.52;;
64791;SDS011;51226;47.504;19.074;2023-12-20T13:40:52;13.25;;;11.25;;
64791;SDS011;51226;47.504;19.074;2023-12-20T13:43:55;15.90;;;12.48;;
64791;SDS011;51226;47.504;19.074;2023-12-20T13:46:58;15.98;;;11.93;;
64791;SDS011;51226;47.504;19.074;2023-12-20T13:50:02;15.82;;;12.20;;
64791;SDS011;51226;47.504;19.074;2023-12-20T13:53:05;17.37;;;12.90;;
64791;SDS011;51226;47.504;19.074;2023-12-20T13:56:09;16.48;;;12.75;;
64791;SDS011;51226;47.504;19.074;2023-12-20T13:59:11;17.97;;;12.30;;
64791;SDS011;51226;47.504;19.074;2023-12-20T14:02:15;16.62;;;12.50;;
64791;SDS011;51226;47.504;19.074;2023-12-20T14:05:21;16.80;;;12.55;;
64791;SDS011;51226;47.504;19.074;2023-12-20T14:08:30;15.90;;;12.20;;
64791;SDS011;51226;47.504;19.074;2023-12-20T14:11:33;14.50;;;11.05;;
64791;SDS011;51226;47.504;19.074;2023-12-20T14:14:36;15.25;;;11.65;;
64791;SDS011;51226;47.504;19.074;2023-12-20T14:17:42;14.00;;;10.05;;
64791;SDS011;51226;47.504;19.074;2023-12-20T14:20:46;16.02;;;11.95;;
64791;SDS011;51226;47.504;19.074;2023-12-20T14:23:50;16.08;;;11.77;;
64791;SDS011;51226;47.504;19.074;2023-12-20T14:26:54;13.75;;;11.55;;
64791;SDS011;51226;47.504;19.074;2023-12-20T14:29:57;23.08;;;16.92;;
64791;SDS011;51226;47.504;19.074;2023-12-20T14:36:04;15.20;;;11.65;;
64791;SDS011;51226;47.504;19.074;2023-12-20T14:39:07;13.32;;;11.10;;
64791;SDS011;51226;47.504;19.074;2023-12-20T14:42:11;12.48;;;9.35;;
64791;SDS011;51226;47.504;19.074;2023-12-20T14:45:16;11.35;;;8.80;;
64791;SDS011;51226;47.504;19.074;2023-12-20T14:48:19;13.15;;;9.45;;
64791;SDS011;51226;47.504;19.074;2023-12-20T14:51:23;9.88;;;8.63;;
64791;SDS011;51226;47.504;19.074;2023-12-20T14:54:27;12.40;;;9.32;;
64791;SDS011;51226;47.504;19.074;2023-12-20T14:57:30;13.18;;;10.10;;
64791;SDS011;51226;47.504;19.074;2023-12-20T15:00:33;11.65;;;9.05;;
64791;SDS011;51226;47.504;19.074;2023-12-20T15:03:36;10.23;;;8.50;;
64791;SDS011;51226;47.504;19.074;2023-12-20T15:06:39;10.43;;;8.23;;
64791;SDS011;51226;47.504;19.074;2023-12-20T15:09:42;10.45;;;8.45;;
64791;SDS011;51226;47.504;19.074;2023-12-20T15:12:48;11.68;;;8.95;;
64791;SDS011;51226;47.504;19.074;2023-12-20T15:15:51;10.65;;;8.90;;
64791;SDS011;51226;47.504;19.074;2023-12-20T15:18:54;14.68;;;9.43;;
64791;SDS011;51226;47.504;19.074;2023-12-20T15:21:59;15.55;;;10.10;;
64791;SDS011;51226;47.504;19.074;2023-12-20T15:25:02;13.25;;;9.45;;
64791;SDS011;51226;47.504;19.074;2023-12-20T15:28:07;13.77;;;10.40;;
64791;SDS011;51226;47.504;19.074;2023-12-20T15:31:10;12.82;;;9.85;;
64791;SDS011;51226;47.504;19.074;2023-12-20T15:34:13;13.13;;;10.68;;
64791;SDS011;51226;47.504;19.074;2023-12-20T15:37:17;15.13;;;11.43;;
64791;SDS011;51226;47.504;19.074;2023-12-20T15:40:20;16.92;;;12.05;;
64791;SDS011;51226;47.504;19.074;2023-12-20T15:43:23;15.43;;;11.65;;
64791;SDS011;51226;47.504;19.074;2023-12-20T15:46:27;13.13;;;10.35;;
64791;SDS011;51226;47.504;19.074;2023-12-20T15:49:30;16.45;;;12.48;;
64791;SDS011;51226;47.504;19.074;2023-12-20T15:52:33;15.98;;;11.90;;
64791;SDS011;51226;47.504;19.074;2023-12-20T15:55:36;15.80;;;11.95;;
64791;SDS011;51226;47.504;19.074;2023-12-20T16:01:42;22.00;;;15.60;;
64791;SDS011;51226;47.504;19.074;2023-12-20T16:04:55;19.77;;;13.07;;
64791;SDS011;51226;47.504;19.074;2023-12-20T16:07:58;13.90;;;10.55;;
64791;SDS011;51226;47.504;19.074;2023-12-20T16:11:01;14.90;;;10.85;;
64791;SDS011;51226;47.504;19.074;2023-12-20T16:14:03;14.75;;;10.63;;
64791;SDS011;51226;47.504;19.074;2023-12-20T16:17:07;15.25;;;11.55;;
64791;SDS011;51226;47.504;19.074;2023-12-20T16:20:10;14.75;;;10.38;;
64791;SDS011;51226;47.504;19.074;2023-12-20T16:23:13;13.73;;;10.93;;
64791;SDS011;51226;47.504;19.074;2023-12-20T16:26:16;15.20;;;11.13;;
64791;SDS011;51226;47.504;19.074;2023-12-20T16:29:19;13.95;;;11.38;;
64791;SDS011;51226;47.504;19.074;2023-12-20T16:32:22;16.55;;;11.45;;
64791;SDS011;51226;47.504;19.074;2023-12-20T16:35:25;15.80;;;11.57;;
64791;SDS011;51226;47.504;19.074;2023-12-20T16:38:28;16.05;;;12.02;;
64791;SDS011;51226;47.504;19.074;2023-12-20T16:44:34;15.65;;;11.80;;
64791;SDS011;51226;47.504;19.074;2023-12-20T16:47:37;17.33;;;12.45;;
64791;SDS011;51226;47.504;19.074;2023-12-20T16:50:40;15.25;;;12.20;;
64791;SDS011;51226;47.504;19.074;2023-12-20T16:53:43;15.98;;;12.18;;
64791;SDS011;51226;47.504;19.074;2023-12-20T16:56:45;17.87;;;13.17;;
64791;SDS011;51226;47.504;19.074;2023-12-20T16:59:49;16.62;;;12.40;;
64791;SDS011;51226;47.504;19.074;2023-12-20T17:02:51;19.87;;;13.07;;
64791;SDS011;51226;47.504;19.074;2023-12-20T17:05:55;16.80;;;11.93;;
64791;SDS011;51226;47.504;19.074;2023-12-20T17:08:57;15.77;;;11.90;;
64791;SDS011;51226;47.504;19.074;2023-12-20T17:12:01;17.90;;;12.27;;
64791;SDS011;51226;47.504;19.074;2023-12-20T17:15:04;16.50;;;12.80;;
64791;SDS011;51226;47.504;19.074;2023-12-20T17:18:08;17.80;;;13.25;;
64791;SDS011;51226;47.504;19.074;2023-12-20T17:21:11;16.30;;;12.57;;
64791;SDS011;51226;47.504;19.074;2023-12-20T17:24:15;14.52;;;11.32;;
64791;SDS011;51226;47.504;19.074;2023-12-20T17:27:17;18.47;;;12.40;;
64791;SDS011;51226;47.504;19.074;2023-12-20T17:30:21;17.98;;;13.18;;
64791;SDS011;51226;47.504;19.074;2023-12-20T17:33:24;16.92;;;12.43;;
64791;SDS011;51226;47.504;19.074;2023-12-20T17:36:27;13.75;;;10.30;;
64791;SDS011;51226;47.504;19.074;2023-12-20T17:39:29;14.23;;;11.07;;
64791;SDS011;51226;47.504;19.074;2023-12-20T17:45:36;13.50;;;10.85;;
64791;SDS011;51226;47.504;19.074;2023-12-20T17:48:40;15.32;;;12.40;;
64791;SDS011;51226;47.504;19.074;2023-12-20T17:51:42;14.97;;;11.30;;
64791;SDS011;51226;47.504;19.074;2023-12-20T17:54:46;13.18;;;10.73;;
64791;SDS011;51226;47.504;19.074;2023-12-20T17:57:50;14.85;;;10.75;;
64791;SDS011;51226;47.504;19.074;2023-12-20T18:00:54;16.23;;;10.35;;
64791;SDS011;51226;47.504;19.074;2023-12-20T18:03:57;14.90;;;10.82;;
64791;SDS011;51226;47.504;19.074;2023-12-20T18:07:00;14.63;;;10.27;;
64791;SDS011;51226;47.504;19.074;2023-12-20T18:10:03;15.85;;;11.27;;
64791;SDS011;51226;47.504;19.074;2023-12-20T18:13:06;13.43;;;10.93;;
64791;SDS011;51226;47.504;19.074;2023-12-20T18:16:09;10.93;;;8.82;;
64791;SDS011;51226;47.504;19.074;2023-12-20T18:19:13;12.32;;;9.45;;
64791;SDS011;51226;47.504;19.074;2023-12-20T18:22:17;11.93;;;8.95;;
64791;SDS011;51226;47.504;19.074;2023-12-20T18:25:20;12.57;;;9.90;;
64791;SDS011;51226;47.504;19.074;2023-12-20T18:28:23;12.65;;;10.07;;
64791;SDS011;51226;47.504;19.074;2023-12-20T18:34:38;14.93;;;10.35;;
64791;SDS011;51226;47.504;19.074;2023-12-20T18:37:42;11.63;;;9.77;;
64791;SDS011;51226;47.504;19.074;2023-12-20T18:40:45;12.90;;;10.25;;